createdAt,value
2022-10-29T00:01:57.729Z,7.95
2022-10-29T00:04:24.153Z,7.97
2022-10-29T00:09:21.830Z,8.13
2022-10-29T00:11:48.228Z,9.50
2022-10-29T00:14:16.239Z,7.82
2022-10-29T00:16:42.602Z,7.90
2022-10-29T00:19:09.295Z,7.72
2022-10-29T00:21:35.698Z,9.02
2022-10-29T00:24:02.064Z,8.43
2022-10-29T00:26:29.985Z,8.30
2022-10-29T00:28:56.735Z,8.05
2022-10-29T00:31:27.152Z,7.85
2022-10-29T00:33:55.299Z,9.35
2022-10-29T00:36:24.672Z,8.20
2022-10-29T00:38:51.086Z,7.85
2022-10-29T00:41:21.138Z,7.80
2022-10-29T00:43:52.526Z,8.90
2022-10-29T00:46:27.858Z,9.02
2022-10-29T00:48:54.865Z,8.30
2022-10-29T00:51:21.540Z,9.13
2022-10-29T00:53:52.844Z,9.18
2022-10-29T00:56:19.300Z,8.97
2022-10-29T00:58:46.068Z,9.57
2022-10-29T01:01:12.788Z,8.98
2022-10-29T01:03:39.295Z,9.57
2022-10-29T01:06:06.293Z,8.35
2022-10-29T01:08:32.657Z,9.90
2022-10-29T01:11:09.322Z,9.15
2022-10-29T01:13:35.568Z,9.20
2022-10-29T01:16:08.273Z,9.88
2022-10-29T01:18:45.322Z,10.18
2022-10-29T01:21:30.676Z,10.30
2022-10-29T01:24:09.863Z,9.65
2022-10-29T01:26:48.342Z,10.38
2022-10-29T01:29:31.810Z,8.80
2022-10-29T01:32:07.987Z,10.07
2022-10-29T01:35:00.431Z,9.15
2022-10-29T01:40:28.115Z,10.43
2022-10-29T01:45:51.313Z,10.70
2022-10-29T01:48:20.557Z,11.23
2022-10-29T01:50:51.821Z,10.68
2022-10-29T01:53:19.140Z,9.70
2022-10-29T01:55:49.286Z,10.02
2022-10-29T02:01:04.132Z,9.95
2022-10-29T02:03:58.739Z,9.52
2022-10-29T02:06:52.508Z,9.82
2022-10-29T02:09:42.338Z,9.75
2022-10-29T02:12:17.764Z,8.75
2022-10-29T02:15:07.763Z,10.27
2022-10-29T02:17:34.583Z,8.60
2022-10-29T02:20:09.657Z,9.88
2022-10-29T02:22:36.075Z,8.65
2022-10-29T02:25:03.051Z,10.98
2022-10-29T02:27:29.441Z,9.43
2022-10-29T02:29:55.805Z,8.40
2022-10-29T02:32:22.243Z,9.27
2022-10-29T02:34:48.603Z,8.80
2022-10-29T02:37:15.018Z,9.43
2022-10-29T02:39:41.374Z,9.55
2022-10-29T02:42:07.735Z,10.70
2022-10-29T02:44:34.116Z,10.52
2022-10-29T02:47:00.478Z,9.88
2022-10-29T02:49:26.852Z,9.18
2022-10-29T02:51:53.211Z,9.70
2022-10-29T02:54:19.564Z,9.93
2022-10-29T02:56:45.956Z,10.93
2022-10-29T02:59:12.326Z,9.05
2022-10-29T03:01:38.967Z,9.60
2022-10-29T03:04:05.582Z,8.77
2022-10-29T03:06:32.117Z,8.98
2022-10-29T03:08:58.449Z,9.88
2022-10-29T03:11:24.811Z,9.18
2022-10-29T03:13:51.153Z,10.00
2022-10-29T03:16:17.514Z,9.30
2022-10-29T03:18:43.856Z,9.40
2022-10-29T03:21:10.232Z,9.02
2022-10-29T03:23:36.593Z,9.90
2022-10-29T03:26:03.186Z,11.38
2022-10-29T03:28:30.565Z,10.15
2022-10-29T03:30:57.829Z,9.32
2022-10-29T03:33:26.502Z,10.57
2022-10-29T03:35:59.789Z,9.65
2022-10-29T03:38:26.729Z,9.60
2022-10-29T03:40:53.123Z,7.32
2022-10-29T03:43:19.656Z,9.63
2022-10-29T03:45:56.822Z,9.40
2022-10-29T03:48:24.092Z,10.73
2022-10-29T03:51:09.990Z,10.18
2022-10-29T03:53:37.025Z,8.95
2022-10-29T03:56:04.056Z,9.93
2022-10-29T03:58:30.450Z,10.18
2022-10-29T04:01:04.890Z,10.30
2022-10-29T04:03:32.887Z,11.38
2022-10-29T04:06:01.031Z,11.52
2022-10-29T04:08:27.398Z,10.30
2022-10-29T04:10:53.922Z,10.23
2022-10-29T04:13:20.609Z,10.77
2022-10-29T04:15:47.067Z,11.23
2022-10-29T04:18:13.927Z,11.40
2022-10-29T04:21:03.103Z,11.18
2022-10-29T04:29:01.901Z,11.48
2022-10-29T04:31:28.259Z,10.10
2022-10-29T04:33:54.609Z,10.77
2022-10-29T04:36:21.073Z,10.13
2022-10-29T04:38:47.462Z,10.85
2022-10-29T04:41:13.821Z,9.45
2022-10-29T04:43:40.181Z,10.23
2022-10-29T04:46:06.573Z,9.43
2022-10-29T04:48:33.015Z,10.45
2022-10-29T04:50:59.465Z,8.60
2022-10-29T04:53:25.817Z,9.65
2022-10-29T04:55:52.274Z,9.02
2022-10-29T04:58:19.894Z,8.50
2022-10-29T05:00:46.609Z,10.90
2022-10-29T05:03:13.130Z,11.77
2022-10-29T05:05:39.923Z,11.07
2022-10-29T05:08:06.739Z,11.07
2022-10-29T05:10:35.130Z,9.60
2022-10-29T05:13:03.771Z,9.68
2022-10-29T05:15:30.673Z,10.13
2022-10-29T05:17:57.636Z,9.95
2022-10-29T05:20:25.123Z,9.38
2022-10-29T05:23:07.955Z,9.52
2022-10-29T05:25:36.243Z,10.45
2022-10-29T05:28:15.696Z,9.20
2022-10-29T05:30:43.803Z,9.48
2022-10-29T05:33:11.835Z,10.25
2022-10-29T05:35:38.283Z,8.93
2022-10-29T05:38:05.436Z,10.50
2022-10-29T05:40:32.070Z,10.50
2022-10-29T05:42:58.780Z,9.60
2022-10-29T05:45:25.382Z,10.80
2022-10-29T05:47:58.816Z,10.57
2022-10-29T05:50:25.822Z,10.52
2022-10-29T05:53:00.320Z,10.05
2022-10-29T05:55:27.235Z,9.70
2022-10-29T05:58:00.122Z,9.93
2022-10-29T06:00:28.228Z,10.20
2022-10-29T06:02:55.462Z,11.43
2022-10-29T06:05:22.411Z,10.68
2022-10-29T06:07:59.134Z,11.13
2022-10-29T06:10:27.531Z,11.95
2022-10-29T06:12:53.954Z,12.43
2022-10-29T06:15:20.568Z,10.90
2022-10-29T06:17:47.187Z,9.32
2022-10-29T06:20:15.349Z,11.10
2022-10-29T06:22:41.735Z,9.48
2022-10-29T06:25:08.638Z,9.48
2022-10-29T06:27:35.019Z,9.82
2022-10-29T06:30:01.366Z,10.82
2022-10-29T06:32:27.863Z,11.15
2022-10-29T06:34:54.210Z,11.05
2022-10-29T06:37:20.619Z,11.85
2022-10-29T06:39:47.005Z,11.32
2022-10-29T06:42:13.376Z,9.73
2022-10-29T06:44:39.741Z,11.45
2022-10-29T06:47:06.191Z,10.35
2022-10-29T06:49:32.545Z,10.07
2022-10-29T06:51:58.977Z,9.57
2022-10-29T06:54:25.405Z,12.85
2022-10-29T06:56:51.781Z,11.90
2022-10-29T06:59:18.140Z,10.75
2022-10-29T07:01:46.440Z,12.40
2022-10-29T07:04:12.885Z,12.38
2022-10-29T07:06:39.285Z,13.27
2022-10-29T07:09:05.712Z,12.18
2022-10-29T07:11:32.079Z,12.63
2022-10-29T07:13:58.515Z,12.27
2022-10-29T07:16:24.878Z,11.70
2022-10-29T07:18:51.304Z,13.30
2022-10-29T07:21:17.669Z,13.00
2022-10-29T07:23:44.031Z,14.95
2022-10-29T07:26:10.398Z,14.13
2022-10-29T07:28:36.758Z,12.88
2022-10-29T07:31:03.197Z,13.85
2022-10-29T07:33:30.860Z,13.80
2022-10-29T07:35:58.632Z,14.75
2022-10-29T07:38:25.753Z,15.43
2022-10-29T07:40:52.888Z,14.15
2022-10-29T07:43:20.390Z,13.88
2022-10-29T07:45:51.189Z,14.13
2022-10-29T07:48:19.332Z,13.80
2022-10-29T07:50:45.801Z,14.02
2022-10-29T07:53:12.187Z,14.02
2022-10-29T07:55:38.779Z,12.77
2022-10-29T07:58:07.691Z,12.63
2022-10-29T08:00:36.645Z,12.32
2022-10-29T08:03:03.064Z,13.32
2022-10-29T08:05:30.776Z,14.45
2022-10-29T08:07:57.901Z,13.10
2022-10-29T08:10:24.876Z,14.02
2022-10-29T08:12:52.430Z,14.13
2022-10-29T08:15:19.474Z,13.52
2022-10-29T08:17:46.358Z,15.68
2022-10-29T08:20:13.832Z,13.05
2022-10-29T08:22:40.202Z,13.15
2022-10-29T08:25:06.874Z,14.13
2022-10-29T08:27:33.278Z,13.32
2022-10-29T08:29:59.665Z,13.23
2022-10-29T08:32:26.104Z,13.80
2022-10-29T08:34:52.503Z,13.45
2022-10-29T08:37:18.931Z,14.05
2022-10-29T08:39:45.282Z,14.07
2022-10-29T08:42:49.967Z,16.05
2022-10-29T08:45:44.280Z,14.30
2022-10-29T08:48:17.673Z,12.73
2022-10-29T08:50:47.421Z,12.57
2022-10-29T08:53:24.077Z,13.18
2022-10-29T08:55:51.521Z,13.02
2022-10-29T08:58:48.100Z,13.65
2022-10-29T09:01:14.847Z,12.68
2022-10-29T09:03:41.431Z,12.43
2022-10-29T09:06:14.816Z,11.80
2022-10-29T09:09:09.972Z,13.32
2022-10-29T09:11:43.113Z,13.02
2022-10-29T09:14:31.335Z,11.25
2022-10-29T09:17:23.096Z,11.70
2022-10-29T09:19:55.463Z,12.38
2022-10-29T09:22:36.000Z,12.00
2022-10-29T09:25:28.047Z,11.57
2022-10-29T09:28:35.999Z,11.90
2022-10-29T09:31:02.251Z,11.57
2022-10-29T09:33:29.236Z,11.00
2022-10-29T09:35:57.727Z,11.85
2022-10-29T09:38:26.978Z,10.13
2022-10-29T09:40:56.853Z,10.30
2022-10-29T09:43:41.448Z,9.73
2022-10-29T09:46:23.175Z,10.48
2022-10-29T09:49:20.730Z,10.18
2022-10-29T09:52:00.150Z,10.27
2022-10-29T09:54:28.493Z,10.63
2022-10-29T09:56:56.198Z,10.13
2022-10-29T09:59:36.822Z,9.77
2022-10-29T10:02:07.204Z,11.80
2022-10-29T10:04:40.927Z,12.02
2022-10-29T10:07:12.557Z,11.80
2022-10-29T10:10:01.664Z,10.63
2022-10-29T10:12:37.070Z,10.77
2022-10-29T10:15:08.254Z,9.52
2022-10-29T10:17:58.176Z,10.70
2022-10-29T10:20:29.490Z,8.57
2022-10-29T10:22:56.349Z,8.53
2022-10-29T10:25:34.825Z,7.60
2022-10-29T10:28:24.141Z,9.10
2022-10-29T10:31:13.242Z,8.20
2022-10-29T10:33:53.001Z,7.05
2022-10-29T10:36:25.131Z,8.15
2022-10-29T10:38:59.039Z,8.35
2022-10-29T10:41:30.793Z,7.18
2022-10-29T10:44:00.399Z,6.78
2022-10-29T10:46:29.130Z,7.95
2022-10-29T10:48:59.233Z,6.30
2022-10-29T10:51:28.707Z,8.13
2022-10-29T10:53:55.269Z,6.35
2022-10-29T10:56:22.678Z,7.00
2022-10-29T10:59:05.191Z,9.35
2022-10-29T11:01:42.047Z,7.88
2022-10-29T11:04:14.262Z,7.53
2022-10-29T11:06:41.961Z,9.00
2022-10-29T11:09:19.652Z,6.57
2022-10-29T11:11:58.866Z,5.75
2022-10-29T11:14:33.571Z,6.22
2022-10-29T11:17:02.447Z,5.05
2022-10-29T11:19:36.673Z,7.35
2022-10-29T11:22:15.161Z,5.20
2022-10-29T11:24:53.783Z,4.40
2022-10-29T11:27:30.791Z,5.50
2022-10-29T11:30:05.227Z,5.75
2022-10-29T11:33:06.487Z,4.65
2022-10-29T11:35:38.182Z,5.53
2022-10-29T11:38:16.831Z,5.40
2022-10-29T11:41:04.812Z,4.75
2022-10-29T11:43:32.271Z,4.30
2022-10-29T11:46:13.727Z,6.70
2022-10-29T11:49:17.578Z,11.48
2022-10-29T11:51:58.138Z,5.07
2022-10-29T11:54:41.994Z,5.00
2022-10-29T11:57:20.301Z,4.78
2022-10-29T12:00:09.649Z,4.45
2022-10-29T12:03:24.124Z,4.38
2022-10-29T12:06:12.339Z,5.57
2022-10-29T12:08:48.744Z,4.43
2022-10-29T12:11:42.973Z,5.30
2022-10-29T12:14:25.124Z,4.32
2022-10-29T12:17:12.739Z,4.32
2022-10-29T12:20:11.498Z,3.90
2022-10-29T12:22:41.426Z,4.30
2022-10-29T12:25:18.111Z,5.15
2022-10-29T12:27:52.023Z,4.35
2022-10-29T12:30:19.041Z,4.18
2022-10-29T12:33:04.334Z,4.90
2022-10-29T12:35:48.932Z,4.38
2022-10-29T12:38:25.704Z,4.40
2022-10-29T12:40:58.676Z,4.30
2022-10-29T12:43:36.397Z,3.92
2022-10-29T12:46:21.865Z,3.60
2022-10-29T12:49:03.412Z,3.90
2022-10-29T12:51:43.116Z,3.88
2022-10-29T12:54:27.993Z,3.78
2022-10-29T12:56:56.460Z,5.15
2022-10-29T12:59:34.293Z,4.20
2022-10-29T13:02:30.493Z,4.20
2022-10-29T13:05:06.072Z,4.68
2022-10-29T13:07:36.531Z,4.28
2022-10-29T13:10:21.743Z,4.95
2022-10-29T13:13:15.992Z,4.53
2022-10-29T13:16:04.016Z,4.68
2022-10-29T13:18:41.794Z,3.85
2022-10-29T13:21:08.546Z,3.75
2022-10-29T13:23:37.232Z,4.07
2022-10-29T13:26:08.138Z,3.92
2022-10-29T13:28:37.530Z,3.80
2022-10-29T13:31:03.880Z,3.92
2022-10-29T13:33:30.126Z,3.90
2022-10-29T13:35:59.360Z,4.72
2022-10-29T13:38:58.133Z,3.88
2022-10-29T13:41:43.459Z,4.28
2022-10-29T13:44:11.649Z,4.40
2022-10-29T13:47:01.816Z,4.53
2022-10-29T13:49:41.162Z,4.85
2022-10-29T13:52:12.144Z,5.72
2022-10-29T13:54:51.689Z,4.33
2022-10-29T13:57:25.698Z,4.35
2022-10-29T13:59:58.211Z,4.38
2022-10-29T14:02:57.748Z,3.90
2022-10-29T14:05:38.224Z,4.13
2022-10-29T14:08:18.915Z,4.43
2022-10-29T14:10:47.822Z,4.55
2022-10-29T14:13:14.360Z,3.58
2022-10-29T14:16:00.796Z,4.00
2022-10-29T14:18:27.793Z,4.18
2022-10-29T14:20:58.705Z,4.47
2022-10-29T14:23:27.159Z,4.30
2022-10-29T14:25:55.755Z,3.83
2022-10-29T14:28:30.108Z,4.93
2022-10-29T14:31:16.551Z,4.32
2022-10-29T14:33:45.231Z,4.18
2022-10-29T14:36:26.206Z,4.45
2022-10-29T14:39:00.421Z,4.63
2022-10-29T14:41:28.839Z,4.80
2022-10-29T14:44:09.489Z,5.32
2022-10-29T14:46:37.530Z,4.63
2022-10-29T14:49:09.225Z,5.18
2022-10-29T14:51:41.632Z,4.78
2022-10-29T14:54:09.477Z,5.50
2022-10-29T14:56:38.474Z,4.85
2022-10-29T14:59:13.475Z,4.38
2022-10-29T15:01:46.361Z,4.78
2022-10-29T15:04:27.692Z,4.05
2022-10-29T15:06:56.996Z,4.60
2022-10-29T15:09:27.990Z,4.18
2022-10-29T15:12:08.628Z,4.68
2022-10-29T15:14:47.145Z,5.22
2022-10-29T15:17:25.793Z,5.65
2022-10-29T15:19:55.376Z,4.63
2022-10-29T15:22:26.735Z,4.70
2022-10-29T15:24:54.260Z,5.03
2022-10-29T15:27:22.826Z,5.32
2022-10-29T15:29:49.375Z,4.55
2022-10-29T15:32:17.344Z,4.38
2022-10-29T15:34:52.374Z,4.55
2022-10-29T15:37:18.674Z,9.27
2022-10-29T15:39:57.136Z,9.70
2022-10-29T15:42:26.823Z,9.07
2022-10-29T15:45:08.532Z,7.82
2022-10-29T15:47:40.042Z,8.55
2022-10-29T15:50:10.288Z,7.18
2022-10-29T15:52:41.746Z,7.10
2022-10-29T15:55:14.623Z,7.53
2022-10-29T15:57:41.514Z,7.38
2022-10-29T16:00:08.943Z,7.13
2022-10-29T16:02:35.378Z,7.22
2022-10-29T16:05:01.814Z,7.82
2022-10-29T16:07:28.190Z,7.22
2022-10-29T16:09:54.896Z,7.90
2022-10-29T16:12:25.939Z,7.97
2022-10-29T16:14:52.297Z,9.18
2022-10-29T16:17:20.908Z,8.80
2022-10-29T16:19:47.572Z,9.55
2022-10-29T16:22:16.592Z,12.40
2022-10-29T16:24:43.028Z,12.80
2022-10-29T16:27:18.482Z,11.77
2022-10-29T16:29:46.938Z,13.13
2022-10-29T16:32:17.716Z,12.30
2022-10-29T16:34:44.092Z,14.20
2022-10-29T16:37:15.547Z,16.95
2022-10-29T16:39:42.418Z,19.27
2022-10-29T16:42:27.614Z,13.30
2022-10-29T16:44:53.969Z,9.60
2022-10-29T16:47:20.414Z,8.90
2022-10-29T16:49:46.804Z,8.30
2022-10-29T16:52:16.267Z,7.22
2022-10-29T16:54:45.841Z,8.63
2022-10-29T16:57:12.554Z,7.45
2022-10-29T16:59:38.937Z,8.30
2022-10-29T17:02:05.331Z,8.02
2022-10-29T17:04:31.797Z,7.57
2022-10-29T17:06:58.235Z,7.55
2022-10-29T17:09:25.653Z,9.82
2022-10-29T17:11:52.128Z,10.35
2022-10-29T17:14:18.481Z,9.63
2022-10-29T17:16:44.843Z,10.82
2022-10-29T17:19:11.368Z,11.50
2022-10-29T17:21:37.782Z,12.50
2022-10-29T17:24:07.774Z,10.85
2022-10-29T17:26:34.419Z,9.95
2022-10-29T17:29:00.833Z,10.73
2022-10-29T17:31:27.259Z,10.85
2022-10-29T17:33:53.631Z,9.32
2022-10-29T17:36:20.063Z,9.15
2022-10-29T17:38:46.605Z,9.45
2022-10-29T17:41:13.035Z,8.70
2022-10-29T17:43:39.408Z,8.85
2022-10-29T17:46:05.801Z,8.68
2022-10-29T17:48:32.345Z,8.18
2022-10-29T17:51:01.144Z,9.02
2022-10-29T17:53:28.867Z,8.02
2022-10-29T17:55:59.330Z,7.15
2022-10-29T17:58:26.049Z,9.00
2022-10-29T18:00:52.693Z,8.75
2022-10-29T18:03:19.160Z,7.85
2022-10-29T18:05:45.705Z,9.18
2022-10-29T18:08:12.121Z,8.38
2022-10-29T18:10:39.144Z,8.50
2022-10-29T18:13:05.705Z,10.77
2022-10-29T18:15:32.220Z,28.67
2022-10-29T18:17:59.528Z,18.92
2022-10-29T18:20:26.075Z,29.17
2022-10-29T18:22:55.805Z,18.05
2022-10-29T18:25:22.587Z,36.58
2022-10-29T18:27:49.051Z,25.42
2022-10-29T18:30:16.051Z,29.48
2022-10-29T18:32:42.476Z,28.08
2022-10-29T18:35:09.403Z,16.80
2022-10-29T18:37:35.765Z,12.25
2022-10-29T18:40:02.114Z,15.95
2022-10-29T18:42:29.792Z,14.63
2022-10-29T18:44:56.142Z,13.18
2022-10-29T18:47:22.523Z,13.30
2022-10-29T18:49:48.904Z,11.75
2022-10-29T18:52:15.287Z,10.10
2022-10-29T18:54:41.694Z,8.23
2022-10-29T18:57:08.264Z,8.00
2022-10-29T18:59:34.685Z,6.70
2022-10-29T19:02:01.399Z,6.60
2022-10-29T19:04:27.952Z,7.95
2022-10-29T19:06:54.579Z,7.22
2022-10-29T19:09:21.002Z,5.68
2022-10-29T19:11:53.834Z,7.75
2022-10-29T19:14:23.343Z,7.30
2022-10-29T19:16:49.717Z,7.07
2022-10-29T19:19:18.451Z,7.05
2022-10-29T19:21:47.723Z,6.07
2022-10-29T19:24:14.818Z,5.43
2022-10-29T19:26:41.471Z,5.38
2022-10-29T19:29:08.520Z,5.10
2022-10-29T19:31:36.003Z,5.40
2022-10-29T19:34:05.900Z,5.25
2022-10-29T19:36:34.342Z,4.07
2022-10-29T19:39:00.931Z,4.32
2022-10-29T19:41:27.506Z,4.93
2022-10-29T19:43:53.966Z,4.43
2022-10-29T19:46:24.460Z,4.85
2022-10-29T19:48:52.571Z,5.70
2022-10-29T19:51:19.295Z,4.70
2022-10-29T19:53:46.549Z,5.35
2022-10-29T19:56:14.648Z,4.85
2022-10-29T19:58:41.295Z,5.40
2022-10-29T20:01:10.603Z,4.43
2022-10-29T20:03:37.080Z,4.78
2022-10-29T20:06:03.824Z,5.03
2022-10-29T20:08:30.230Z,4.93
2022-10-29T20:10:57.963Z,5.60
2022-10-29T20:13:24.988Z,4.75
2022-10-29T20:15:51.968Z,4.68
2022-10-29T20:18:18.578Z,5.30
2022-10-29T20:20:45.395Z,4.25
2022-10-29T20:23:12.063Z,5.43
2022-10-29T20:25:38.422Z,5.82
2022-10-29T20:28:04.882Z,5.88
2022-10-29T20:30:31.246Z,5.35
2022-10-29T20:32:57.976Z,5.40
2022-10-29T20:35:24.562Z,5.82
2022-10-29T20:37:50.943Z,5.78
2022-10-29T20:40:17.388Z,5.10
2022-10-29T20:42:43.784Z,5.90
2022-10-29T20:45:10.274Z,5.18
2022-10-29T20:47:36.639Z,4.65
2022-10-29T20:50:03.034Z,4.93
2022-10-29T20:52:30.308Z,5.13
2022-10-29T20:54:56.696Z,6.40
2022-10-29T20:57:23.061Z,5.75
2022-10-29T20:59:49.417Z,5.18
2022-10-29T21:02:15.919Z,6.28
2022-10-29T21:04:42.372Z,6.45
2022-10-29T21:07:08.776Z,6.40
2022-10-29T21:09:35.163Z,5.03
2022-10-29T21:12:01.533Z,5.82
2022-10-29T21:14:29.522Z,6.93
2022-10-29T21:16:55.892Z,5.72
2022-10-29T21:19:22.857Z,6.60
2022-10-29T21:21:49.196Z,5.78
2022-10-29T21:24:16.474Z,5.45
2022-10-29T21:26:42.826Z,5.57
2022-10-29T21:29:09.187Z,5.57
2022-10-29T21:31:35.633Z,6.85
2022-10-29T21:34:01.989Z,6.00
2022-10-29T21:36:28.339Z,6.25
2022-10-29T21:38:54.703Z,7.93
2022-10-29T21:41:21.139Z,8.07
2022-10-29T21:43:47.599Z,7.80
2022-10-29T21:46:14.008Z,8.43
2022-10-29T21:48:40.473Z,9.57
2022-10-29T21:51:10.178Z,9.50
2022-10-29T21:53:36.642Z,8.25
2022-10-29T21:56:04.958Z,8.75
2022-10-29T21:58:31.618Z,8.48
2022-10-29T22:01:03.413Z,8.18
2022-10-29T22:03:31.541Z,7.72
2022-10-29T22:06:22.141Z,7.88
2022-10-29T22:08:53.347Z,6.30
2022-10-29T22:11:19.703Z,6.30
2022-10-29T22:13:46.131Z,5.90
2022-10-29T22:16:12.836Z,5.80
2022-10-29T22:18:39.979Z,7.35
2022-10-29T22:21:06.630Z,6.57
2022-10-29T22:23:33.333Z,7.18
2022-10-29T22:25:59.730Z,6.32
2022-10-29T22:28:26.096Z,5.45
2022-10-29T22:31:00.196Z,6.05
2022-10-29T22:33:27.325Z,7.43
2022-10-29T22:35:53.717Z,8.00
2022-10-29T22:38:20.165Z,7.38
2022-10-29T22:40:46.518Z,7.88
2022-10-29T22:43:12.999Z,6.68
2022-10-29T22:45:39.409Z,7.90
2022-10-29T22:48:06.006Z,7.82
2022-10-29T22:50:32.368Z,7.22
2022-10-29T22:52:59.095Z,7.05
2022-10-29T22:55:25.645Z,7.75
2022-10-29T22:57:52.001Z,7.90
2022-10-29T23:00:18.383Z,8.43
2022-10-29T23:02:44.796Z,7.85
2022-10-29T23:05:11.175Z,7.28
2022-10-29T23:07:37.528Z,7.50
2022-10-29T23:10:04.106Z,7.05
2022-10-29T23:12:30.497Z,7.80
2022-10-29T23:14:56.856Z,9.35
2022-10-29T23:17:23.225Z,7.88
2022-10-29T23:19:49.570Z,6.93
2022-10-29T23:24:47.179Z,7.53
2022-10-29T23:27:13.535Z,8.60
2022-10-29T23:29:39.869Z,7.93
2022-10-29T23:32:06.242Z,7.10
2022-10-29T23:34:32.625Z,8.32
2022-10-29T23:37:00.415Z,7.57
2022-10-29T23:39:28.495Z,6.70
2022-10-29T23:41:54.845Z,7.85
2022-10-29T23:44:21.177Z,8.15
2022-10-29T23:46:47.535Z,6.97
2022-10-29T23:49:13.875Z,7.90
2022-10-29T23:51:40.248Z,7.65
2022-10-29T23:54:06.603Z,6.88
2022-10-29T23:56:33.023Z,8.88
2022-10-29T23:58:59.370Z,7.50
